sensor_id;sensor_type;location;lat;lon;timestamp;temperature;humidity
10143;DHT22;5112;54.088;13.446;2023-04-03T00:04:19;3.10;99.90
10143;DHT22;5112;54.088;13.446;2023-04-03T00:14:22;3.20;99.90
10143;DHT22;5112;54.088;13.446;2023-04-03T00:24:24;3.60;99.90
10143;DHT22;5112;54.088;13.446;2023-04-03T00:34:27;3.70;99.90
10143;DHT22;5112;54.088;13.446;2023-04-03T00:55:09;3.80;99.90
10143;DHT22;5112;54.088;13.446;2023-04-03T01:05:11;3.80;99.90
10143;DHT22;5112;54.088;13.446;2023-04-03T01:15:17;3.70;99.90
10143;DHT22;5112;54.088;13.446;2023-04-03T01:25:19;3.70;99.90
10143;DHT22;5112;54.088;13.446;2023-04-03T01:35:22;3.70;99.90
10143;DHT22;5112;54.088;13.446;2023-04-03T01:45:24;3.60;99.90
10143;DHT22;5112;54.088;13.446;2023-04-03T01:55:27;3.70;99.90
10143;DHT22;5112;54.088;13.446;2023-04-03T02:05:29;3.70;99.90
10143;DHT22;5112;54.088;13.446;2023-04-03T02:15:32;3.80;99.90
10143;DHT22;5112;54.088;13.446;2023-04-03T02:25:34;3.80;99.90
10143;DHT22;5112;54.088;13.446;2023-04-03T02:35:39;3.60;99.90
10143;DHT22;5112;54.088;13.446;2023-04-03T02:45:41;3.60;99.90
10143;DHT22;5112;54.088;13.446;2023-04-03T02:55:44;3.60;99.90
10143;DHT22;5112;54.088;13.446;2023-04-03T03:05:46;3.50;99.90
10143;DHT22;5112;54.088;13.446;2023-04-03T03:15:50;3.40;99.90
10143;DHT22;5112;54.088;13.446;2023-04-03T03:25:55;3.30;99.90
10143;DHT22;5112;54.088;13.446;2023-04-03T03:35:59;3.30;99.90
10143;DHT22;5112;54.088;13.446;2023-04-03T03:46:00;3.30;99.90
10143;DHT22;5112;54.088;13.446;2023-04-03T03:56:04;3.30;99.90
10143;DHT22;5112;54.088;13.446;2023-04-03T04:06:06;3.20;99.90
10143;DHT22;5112;54.088;13.446;2023-04-03T04:16:09;3.20;99.90
10143;DHT22;5112;54.088;13.446;2023-04-03T04:26:11;3.10;99.90
10143;DHT22;5112;54.088;13.446;2023-04-03T04:36:14;2.90;99.90
10143;DHT22;5112;54.088;13.446;2023-04-03T04:46:16;2.90;99.90
10143;DHT22;5112;54.088;13.446;2023-04-03T04:56:19;3.00;99.90
10143;DHT22;5112;54.088;13.446;2023-04-03T05:06:21;3.00;99.90
10143;DHT22;5112;54.088;13.446;2023-04-03T05:16:24;2.90;99.90
10143;DHT22;5112;54.088;13.446;2023-04-03T05:26:26;2.90;99.90
10143;DHT22;5112;54.088;13.446;2023-04-03T05:36:29;2.90;99.90
10143;DHT22;5112;54.088;13.446;2023-04-03T05:46:31;3.10;99.90
10143;DHT22;5112;54.088;13.446;2023-04-03T05:56:34;3.10;99.90
10143;DHT22;5112;54.088;13.446;2023-04-03T06:06:47;3.10;99.90
10143;DHT22;5112;54.088;13.446;2023-04-03T06:16:50;3.20;99.90
10143;DHT22;5112;54.088;13.446;2023-04-03T06:26:52;3.30;99.90
10143;DHT22;5112;54.088;13.446;2023-04-03T06:36:56;3.20;99.90
10143;DHT22;5112;54.088;13.446;2023-04-03T06:46:57;3.60;99.90
10143;DHT22;5112;54.088;13.446;2023-04-03T06:57:00;3.70;99.90
10143;DHT22;5112;54.088;13.446;2023-04-03T07:07:02;3.50;99.90
10143;DHT22;5112;54.088;13.446;2023-04-03T07:17:05;3.70;99.90
10143;DHT22;5112;54.088;13.446;2023-04-03T07:27:07;3.60;99.90
10143;DHT22;5112;54.088;13.446;2023-04-03T07:37:10;4.00;99.90
10143;DHT22;5112;54.088;13.446;2023-04-03T07:47:13;4.00;99.90
10143;DHT22;5112;54.088;13.446;2023-04-03T07:57:18;4.80;99.90
10143;DHT22;5112;54.088;13.446;2023-04-03T08:07:20;4.40;99.90
10143;DHT22;5112;54.088;13.446;2023-04-03T08:17:23;4.50;99.90
10143;DHT22;5112;54.088;13.446;2023-04-03T08:27:25;5.20;99.90
10143;DHT22;5112;54.088;13.446;2023-04-03T08:37:28;5.70;99.90
10143;DHT22;5112;54.088;13.446;2023-04-03T08:47:38;5.80;99.90
10143;DHT22;5112;54.088;13.446;2023-04-03T08:57:44;5.70;99.90
10143;DHT22;5112;54.088;13.446;2023-04-03T09:07:49;5.70;99.90
10143;DHT22;5112;54.088;13.446;2023-04-03T09:18:02;5.60;99.90
10143;DHT22;5112;54.088;13.446;2023-04-03T09:28:05;5.70;99.90
10143;DHT22;5112;54.088;13.446;2023-04-03T09:38:20;6.30;99.90
10143;DHT22;5112;54.088;13.446;2023-04-03T09:48:23;6.00;99.90
10143;DHT22;5112;54.088;13.446;2023-04-03T09:58:29;5.90;99.90
10143;DHT22;5112;54.088;13.446;2023-04-03T10:08:33;6.30;99.90
10143;DHT22;5112;54.088;13.446;2023-04-03T10:18:41;6.20;99.90
10143;DHT22;5112;54.088;13.446;2023-04-03T10:28:48;6.20;99.90
10143;DHT22;5112;54.088;13.446;2023-04-03T10:39:02;6.30;99.90
10143;DHT22;5112;54.088;13.446;2023-04-03T10:49:20;6.40;99.90
10143;DHT22;5112;54.088;13.446;2023-04-03T10:59:27;6.40;99.90
10143;DHT22;5112;54.088;13.446;2023-04-03T11:09:34;6.20;99.90
10143;DHT22;5112;54.088;13.446;2023-04-03T11:19:44;5.90;99.90
10143;DHT22;5112;54.088;13.446;2023-04-03T11:29:47;5.50;99.90
10143;DHT22;5112;54.088;13.446;2023-04-03T11:39:54;5.60;99.90
10143;DHT22;5112;54.088;13.446;2023-04-03T11:49:59;6.20;99.90
10143;DHT22;5112;54.088;13.446;2023-04-03T12:11:14;5.80;99.90
10143;DHT22;5112;54.088;13.446;2023-04-03T12:21:19;6.40;99.90
10143;DHT22;5112;54.088;13.446;2023-04-03T12:31:23;6.30;99.90
10143;DHT22;5112;54.088;13.446;2023-04-03T12:41:37;5.80;99.90
10143;DHT22;5112;54.088;13.446;2023-04-03T12:51:41;5.70;99.90
10143;DHT22;5112;54.088;13.446;2023-04-03T13:01:53;6.80;99.90
10143;DHT22;5112;54.088;13.446;2023-04-03T13:11:58;6.40;99.90
10143;DHT22;5112;54.088;13.446;2023-04-03T13:22:06;6.20;99.90
10143;DHT22;5112;54.088;13.446;2023-04-03T13:32:18;6.10;99.90
10143;DHT22;5112;54.088;13.446;2023-04-03T13:42:24;5.90;99.90
10143;DHT22;5112;54.088;13.446;2023-04-03T13:52:29;6.00;99.90
10143;DHT22;5112;54.088;13.446;2023-04-03T14:02:34;6.30;99.90
10143;DHT22;5112;54.088;13.446;2023-04-03T14:12:37;5.40;99.90
10143;DHT22;5112;54.088;13.446;2023-04-03T14:22:42;5.40;99.90
10143;DHT22;5112;54.088;13.446;2023-04-03T14:32:45;6.00;99.90
10143;DHT22;5112;54.088;13.446;2023-04-03T14:42:48;5.90;99.90
10143;DHT22;5112;54.088;13.446;2023-04-03T14:52:53;5.60;99.90
10143;DHT22;5112;54.088;13.446;2023-04-03T15:02:56;5.30;99.90
10143;DHT22;5112;54.088;13.446;2023-04-03T15:12:58;5.10;99.90
10143;DHT22;5112;54.088;13.446;2023-04-03T15:23:02;4.90;99.90
10143;DHT22;5112;54.088;13.446;2023-04-03T15:33:04;5.00;99.90
10143;DHT22;5112;54.088;13.446;2023-04-03T15:43:07;5.10;99.90
10143;DHT22;5112;54.088;13.446;2023-04-03T15:53:10;5.30;99.90
10143;DHT22;5112;54.088;13.446;2023-04-03T16:03:16;4.90;99.90
10143;DHT22;5112;54.088;13.446;2023-04-03T16:13:19;4.80;99.90
10143;DHT22;5112;54.088;13.446;2023-04-03T16:23:22;5.00;99.90
10143;DHT22;5112;54.088;13.446;2023-04-03T16:33:24;4.60;99.90
10143;DHT22;5112;54.088;13.446;2023-04-03T16:43:27;4.90;99.90
10143;DHT22;5112;54.088;13.446;2023-04-03T16:53:29;5.00;99.90
10143;DHT22;5112;54.088;13.446;2023-04-03T17:03:32;4.30;99.90
10143;DHT22;5112;54.088;13.446;2023-04-03T17:13:34;5.00;99.90
10143;DHT22;5112;54.088;13.446;2023-04-03T17:23:38;4.60;99.90
10143;DHT22;5112;54.088;13.446;2023-04-03T17:33:40;3.90;99.90
10143;DHT22;5112;54.088;13.446;2023-04-03T17:43:43;3.70;99.90
10143;DHT22;5112;54.088;13.446;2023-04-03T17:53:45;3.40;99.90
10143;DHT22;5112;54.088;13.446;2023-04-03T18:03:51;3.20;99.90
10143;DHT22;5112;54.088;13.446;2023-04-03T18:13:54;3.10;99.90
10143;DHT22;5112;54.088;13.446;2023-04-03T18:23:59;3.00;99.90
10143;DHT22;5112;54.088;13.446;2023-04-03T18:34:02;2.80;99.90
10143;DHT22;5112;54.088;13.446;2023-04-03T18:44:07;2.80;99.90
10143;DHT22;5112;54.088;13.446;2023-04-03T18:54:10;2.70;99.90
10143;DHT22;5112;54.088;13.446;2023-04-03T19:04:14;2.50;99.90
10143;DHT22;5112;54.088;13.446;2023-04-03T19:14:16;2.00;99.90
10143;DHT22;5112;54.088;13.446;2023-04-03T19:24:19;1.70;99.90
10143;DHT22;5112;54.088;13.446;2023-04-03T19:34:21;1.40;99.90
10143;DHT22;5112;54.088;13.446;2023-04-03T19:44:24;1.20;99.90
10143;DHT22;5112;54.088;13.446;2023-04-03T19:54:26;1.00;99.90
10143;DHT22;5112;54.088;13.446;2023-04-03T20:04:29;0.80;99.90
10143;DHT22;5112;54.088;13.446;2023-04-03T20:14:30;0.80;99.90
10143;DHT22;5112;54.088;13.446;2023-04-03T20:24:34;0.60;99.90
10143;DHT22;5112;54.088;13.446;2023-04-03T20:34:36;0.40;99.90
10143;DHT22;5112;54.088;13.446;2023-04-03T20:44:39;0.30;99.90
10143;DHT22;5112;54.088;13.446;2023-04-03T20:54:43;0.20;99.90
10143;DHT22;5112;54.088;13.446;2023-04-03T21:04:49;-0.10;99.90
10143;DHT22;5112;54.088;13.446;2023-04-03T21:25:33;0.00;99.90
10143;DHT22;5112;54.088;13.446;2023-04-03T21:35:34;-0.10;99.90
10143;DHT22;5112;54.088;13.446;2023-04-03T21:45:37;-0.20;99.90
10143;DHT22;5112;54.088;13.446;2023-04-03T21:55:40;-0.30;99.90
10143;DHT22;5112;54.088;13.446;2023-04-03T22:05:43;-0.30;99.90
10143;DHT22;5112;54.088;13.446;2023-04-03T22:15:45;-0.40;99.90
10143;DHT22;5112;54.088;13.446;2023-04-03T22:25:58;-0.50;99.90
10143;DHT22;5112;54.088;13.446;2023-04-03T22:35:59;-0.60;99.90
10143;DHT22;5112;54.088;13.446;2023-04-03T22:46:03;-0.70;99.90
10143;DHT22;5112;54.088;13.446;2023-04-03T22:56:06;-0.70;99.90
10143;DHT22;5112;54.088;13.446;2023-04-03T23:06:11;-0.90;99.90
10143;DHT22;5112;54.088;13.446;2023-04-03T23:16:13;-0.90;99.90
10143;DHT22;5112;54.088;13.446;2023-04-03T23:26:16;-0.90;99.90
10143;DHT22;5112;54.088;13.446;2023-04-03T23:36:18;-0.90;99.90
10143;DHT22;5112;54.088;13.446;2023-04-03T23:46:21;-0.90;99.90
10143;DHT22;5112;54.088;13.446;2023-04-03T23:56:23;-1.10;99.90
